Overview Statistics Trail Chart Weather Telemetry Raw packets
 

This is the latest recevied weather packets stored in our database for station/object HS3UAA-1. If no packets are shown the sender has not sent any weather packets the latest 10 day(s).

<< 77 78 79 80 81 82 83 >>
Time Temp. Humidity Pressure Rain* Wind** Luminosity Snow
1788039536 31.11° C 55% 995 hPa - - 0 W/m² -
1788039214 31.67° C 54% 995 hPa - - 0 W/m² -
1788038892 31.67° C 53% 995 hPa - - 0 W/m² -
1788038570 31.67° C 54% 995 hPa - - 0 W/m² -
1788038248 31.67° C 54% 995 hPa - - 0 W/m² -
1788037926 31.67° C 54% 995 hPa - - 0 W/m² -
1788037604 31.67° C 53% 995 hPa - - 0 W/m² -
1788037282 31.67° C 54% 995 hPa - - 0 W/m² -
1788036960 31.11° C 55% 995 hPa - - 0 W/m² -
1788036638 31.67° C 54% 995 hPa - - 0 W/m² -
1788036316 32.22° C 52% 995 hPa - - 0 W/m² -
1788035994 31.11° C 55% 995 hPa - - 0 W/m² -
1788035672 31.67° C 54% 995 hPa - - 0 W/m² -
1788035350 31.67° C 53% 995 hPa - - 0 W/m² -
1788035028 31.67° C 53% 995 hPa - - 0 W/m² -
1788034706 31.67° C 54% 995 hPa - - 0 W/m² -
1788034384 31.67° C 54% 995 hPa - - 0 W/m² -
1788034062 32.78° C 51% 996 hPa - - 0 W/m² -
1788033740 31.67° C 54% 996 hPa - - 0 W/m² -
1788033417 31.67° C 53% 996 hPa - - 0 W/m² -
1788033095 32.22° C 52% 996 hPa - - 0 W/m² -
1788032773 31.67° C 53% 996 hPa - - 0 W/m² -
1788032451 31.11° C 54% 996 hPa - - 0 W/m² -
1788032129 31.67° C 54% 996 hPa - - 0 W/m² -
1788031807 31.67° C 53% 996 hPa - - 0 W/m² -

* Rain since midnight (hover to see other rain measurements)
** Current wind speed in m/s (hover to see current wind gust speed)